METAR Data
IDs: Format: Raw Decoded Include TAF

Data at: 1142 UTC 25 Oct 2020

EBBR 251120Z 18007KT 9999 -RA FEW013 SCT025 12/10 Q1002 NOSIG